sensor_id;sensor_type;location;lat;lon;timestamp;P1;durP1;ratioP1;P2;durP2;ratioP2
61373;SDS011;47242;48.158;-1.586;2022-08-14T00:01:16;5.15;;;4.30;;
61373;SDS011;47242;48.158;-1.586;2022-08-14T00:03:42;6.30;;;4.75;;
61373;SDS011;47242;48.158;-1.586;2022-08-14T00:06:07;7.82;;;4.47;;
61373;SDS011;47242;48.158;-1.586;2022-08-14T00:08:33;7.03;;;3.88;;
61373;SDS011;47242;48.158;-1.586;2022-08-14T00:10:59;5.47;;;3.63;;
61373;SDS011;47242;48.158;-1.586;2022-08-14T00:13:27;9.57;;;3.75;;
61373;SDS011;47242;48.158;-1.586;2022-08-14T00:15:54;5.45;;;4.07;;
61373;SDS011;47242;48.158;-1.586;2022-08-14T00:18:23;4.63;;;4.22;;
61373;SDS011;47242;48.158;-1.586;2022-08-14T00:20:50;5.25;;;3.90;;
61373;SDS011;47242;48.158;-1.586;2022-08-14T00:23:16;5.35;;;4.40;;
61373;SDS011;47242;48.158;-1.586;2022-08-14T00:25:44;8.25;;;4.60;;
61373;SDS011;47242;48.158;-1.586;2022-08-14T00:28:12;6.68;;;4.75;;
61373;SDS011;47242;48.158;-1.586;2022-08-14T00:30:41;8.02;;;5.03;;
61373;SDS011;47242;48.158;-1.586;2022-08-14T00:33:07;7.53;;;5.28;;
61373;SDS011;47242;48.158;-1.586;2022-08-14T00:35:33;9.18;;;6.10;;
61373;SDS011;47242;48.158;-1.586;2022-08-14T00:37:59;8.93;;;6.57;;
61373;SDS011;47242;48.158;-1.586;2022-08-14T00:40:25;9.70;;;7.20;;
61373;SDS011;47242;48.158;-1.586;2022-08-14T00:42:51;9.30;;;6.25;;
61373;SDS011;47242;48.158;-1.586;2022-08-14T00:45:17;11.80;;;6.88;;
61373;SDS011;47242;48.158;-1.586;2022-08-14T00:47:44;9.50;;;7.10;;
61373;SDS011;47242;48.158;-1.586;2022-08-14T00:50:13;8.18;;;7.00;;
61373;SDS011;47242;48.158;-1.586;2022-08-14T00:52:42;12.30;;;7.57;;
61373;SDS011;47242;48.158;-1.586;2022-08-14T00:55:10;13.30;;;7.97;;
61373;SDS011;47242;48.158;-1.586;2022-08-14T00:57:37;10.50;;;8.05;;
61373;SDS011;47242;48.158;-1.586;2022-08-14T01:00:13;8.70;;;7.55;;
61373;SDS011;47242;48.158;-1.586;2022-08-14T01:02:40;8.10;;;7.13;;
61373;SDS011;47242;48.158;-1.586;2022-08-14T01:05:08;8.05;;;6.93;;
61373;SDS011;47242;48.158;-1.586;2022-08-14T01:07:47;9.40;;;6.93;;
61373;SDS011;47242;48.158;-1.586;2022-08-14T01:10:15;8.20;;;6.78;;
61373;SDS011;47242;48.158;-1.586;2022-08-14T01:12:41;8.05;;;6.72;;
61373;SDS011;47242;48.158;-1.586;2022-08-14T01:15:07;10.38;;;7.57;;
61373;SDS011;47242;48.158;-1.586;2022-08-14T01:17:34;6.93;;;6.30;;
61373;SDS011;47242;48.158;-1.586;2022-08-14T01:20:18;9.30;;;6.57;;
61373;SDS011;47242;48.158;-1.586;2022-08-14T01:23:05;9.57;;;7.68;;
61373;SDS011;47242;48.158;-1.586;2022-08-14T01:25:32;9.27;;;6.70;;
61373;SDS011;47242;48.158;-1.586;2022-08-14T01:28:02;9.80;;;6.55;;
61373;SDS011;47242;48.158;-1.586;2022-08-14T01:30:28;8.82;;;7.22;;
61373;SDS011;47242;48.158;-1.586;2022-08-14T01:32:56;9.77;;;6.57;;
61373;SDS011;47242;48.158;-1.586;2022-08-14T01:35:22;7.93;;;6.25;;
61373;SDS011;47242;48.158;-1.586;2022-08-14T01:37:52;9.75;;;6.65;;
61373;SDS011;47242;48.158;-1.586;2022-08-14T01:40:21;7.85;;;7.10;;
61373;SDS011;47242;48.158;-1.586;2022-08-14T01:42:47;9.75;;;6.45;;
61373;SDS011;47242;48.158;-1.586;2022-08-14T01:45:13;10.82;;;6.82;;
61373;SDS011;47242;48.158;-1.586;2022-08-14T01:47:39;7.88;;;6.45;;
61373;SDS011;47242;48.158;-1.586;2022-08-14T01:50:05;9.95;;;7.10;;
61373;SDS011;47242;48.158;-1.586;2022-08-14T01:52:32;9.55;;;6.68;;
61373;SDS011;47242;48.158;-1.586;2022-08-14T01:55:00;8.32;;;6.50;;
61373;SDS011;47242;48.158;-1.586;2022-08-14T01:57:29;8.18;;;6.53;;
61373;SDS011;47242;48.158;-1.586;2022-08-14T01:59:57;8.27;;;6.47;;
61373;SDS011;47242;48.158;-1.586;2022-08-14T02:02:23;7.50;;;6.38;;
61373;SDS011;47242;48.158;-1.586;2022-08-14T02:04:48;8.73;;;7.13;;
61373;SDS011;47242;48.158;-1.586;2022-08-14T02:07:14;8.20;;;6.13;;
61373;SDS011;47242;48.158;-1.586;2022-08-14T02:09:41;8.25;;;7.43;;
61373;SDS011;47242;48.158;-1.586;2022-08-14T02:12:07;7.15;;;6.40;;
61373;SDS011;47242;48.158;-1.586;2022-08-14T02:14:33;9.95;;;7.05;;
61373;SDS011;47242;48.158;-1.586;2022-08-14T02:16:59;8.70;;;7.10;;
61373;SDS011;47242;48.158;-1.586;2022-08-14T02:19:27;8.60;;;6.88;;
61373;SDS011;47242;48.158;-1.586;2022-08-14T02:21:55;7.72;;;6.85;;
61373;SDS011;47242;48.158;-1.586;2022-08-14T02:24:27;11.60;;;6.47;;
61373;SDS011;47242;48.158;-1.586;2022-08-14T02:26:55;10.27;;;7.28;;
61373;SDS011;47242;48.158;-1.586;2022-08-14T02:29:24;11.20;;;8.07;;
61373;SDS011;47242;48.158;-1.586;2022-08-14T02:31:53;18.27;;;8.90;;
61373;SDS011;47242;48.158;-1.586;2022-08-14T02:34:31;12.65;;;8.55;;
61373;SDS011;47242;48.158;-1.586;2022-08-14T02:37:05;15.25;;;9.40;;
61373;SDS011;47242;48.158;-1.586;2022-08-14T02:39:38;15.32;;;9.40;;
61373;SDS011;47242;48.158;-1.586;2022-08-14T02:42:06;8.73;;;6.15;;
61373;SDS011;47242;48.158;-1.586;2022-08-14T02:44:33;11.35;;;8.40;;
61373;SDS011;47242;48.158;-1.586;2022-08-14T02:47:02;11.40;;;8.23;;
61373;SDS011;47242;48.158;-1.586;2022-08-14T02:49:28;12.13;;;8.38;;
61373;SDS011;47242;48.158;-1.586;2022-08-14T02:51:54;13.02;;;9.65;;
61373;SDS011;47242;48.158;-1.586;2022-08-14T02:54:21;13.95;;;9.27;;
61373;SDS011;47242;48.158;-1.586;2022-08-14T02:56:48;10.57;;;8.82;;
61373;SDS011;47242;48.158;-1.586;2022-08-14T02:59:14;11.88;;;9.15;;
61373;SDS011;47242;48.158;-1.586;2022-08-14T03:01:41;14.32;;;10.23;;
61373;SDS011;47242;48.158;-1.586;2022-08-14T03:04:07;15.80;;;10.98;;
61373;SDS011;47242;48.158;-1.586;2022-08-14T03:06:34;15.43;;;10.48;;
61373;SDS011;47242;48.158;-1.586;2022-08-14T03:09:02;11.20;;;8.93;;
61373;SDS011;47242;48.158;-1.586;2022-08-14T03:11:30;13.43;;;9.02;;
61373;SDS011;47242;48.158;-1.586;2022-08-14T03:13:56;13.50;;;8.95;;
61373;SDS011;47242;48.158;-1.586;2022-08-14T03:16:23;14.10;;;9.80;;
61373;SDS011;47242;48.158;-1.586;2022-08-14T03:18:51;14.50;;;9.65;;
61373;SDS011;47242;48.158;-1.586;2022-08-14T03:21:20;15.10;;;11.10;;
61373;SDS011;47242;48.158;-1.586;2022-08-14T03:24:04;13.40;;;10.35;;
61373;SDS011;47242;48.158;-1.586;2022-08-14T03:26:32;18.10;;;10.33;;
61373;SDS011;47242;48.158;-1.586;2022-08-14T03:28:58;13.48;;;9.20;;
61373;SDS011;47242;48.158;-1.586;2022-08-14T03:31:25;11.40;;;8.65;;
61373;SDS011;47242;48.158;-1.586;2022-08-14T03:33:51;13.38;;;8.52;;
61373;SDS011;47242;48.158;-1.586;2022-08-14T03:36:17;11.98;;;8.13;;
61373;SDS011;47242;48.158;-1.586;2022-08-14T03:38:45;12.48;;;7.43;;
61373;SDS011;47242;48.158;-1.586;2022-08-14T03:41:16;7.82;;;5.95;;
61373;SDS011;47242;48.158;-1.586;2022-08-14T03:44:03;9.95;;;6.07;;
61373;SDS011;47242;48.158;-1.586;2022-08-14T03:46:31;10.30;;;5.90;;
61373;SDS011;47242;48.158;-1.586;2022-08-14T03:48:58;11.63;;;7.28;;
61373;SDS011;47242;48.158;-1.586;2022-08-14T03:51:28;9.60;;;7.00;;
61373;SDS011;47242;48.158;-1.586;2022-08-14T03:53:57;10.95;;;7.25;;
61373;SDS011;47242;48.158;-1.586;2022-08-14T03:56:25;12.13;;;8.50;;
61373;SDS011;47242;48.158;-1.586;2022-08-14T03:58:53;11.68;;;7.88;;
61373;SDS011;47242;48.158;-1.586;2022-08-14T04:01:25;13.88;;;8.88;;
61373;SDS011;47242;48.158;-1.586;2022-08-14T04:03:52;15.48;;;8.43;;
61373;SDS011;47242;48.158;-1.586;2022-08-14T04:06:19;13.55;;;8.82;;
61373;SDS011;47242;48.158;-1.586;2022-08-14T04:08:46;15.63;;;9.70;;
61373;SDS011;47242;48.158;-1.586;2022-08-14T04:11:13;13.45;;;8.90;;
61373;SDS011;47242;48.158;-1.586;2022-08-14T04:13:40;21.25;;;9.32;;
61373;SDS011;47242;48.158;-1.586;2022-08-14T04:16:17;17.27;;;9.15;;
61373;SDS011;47242;48.158;-1.586;2022-08-14T04:18:48;14.10;;;9.23;;
61373;SDS011;47242;48.158;-1.586;2022-08-14T04:21:16;15.90;;;8.55;;
61373;SDS011;47242;48.158;-1.586;2022-08-14T04:23:45;14.95;;;9.00;;
61373;SDS011;47242;48.158;-1.586;2022-08-14T04:26:13;15.45;;;8.55;;
61373;SDS011;47242;48.158;-1.586;2022-08-14T04:28:43;18.50;;;9.15;;
61373;SDS011;47242;48.158;-1.586;2022-08-14T04:31:09;13.57;;;8.02;;
61373;SDS011;47242;48.158;-1.586;2022-08-14T04:33:36;9.68;;;7.00;;
61373;SDS011;47242;48.158;-1.586;2022-08-14T04:36:02;14.50;;;7.10;;
61373;SDS011;47242;48.158;-1.586;2022-08-14T04:38:28;13.65;;;8.05;;
61373;SDS011;47242;48.158;-1.586;2022-08-14T04:41:12;13.25;;;7.28;;
61373;SDS011;47242;48.158;-1.586;2022-08-14T04:43:57;11.43;;;7.78;;
61373;SDS011;47242;48.158;-1.586;2022-08-14T04:46:32;11.73;;;7.20;;
61373;SDS011;47242;48.158;-1.586;2022-08-14T04:48:59;12.85;;;7.95;;
61373;SDS011;47242;48.158;-1.586;2022-08-14T04:51:26;13.75;;;7.43;;
61373;SDS011;47242;48.158;-1.586;2022-08-14T04:53:52;11.15;;;7.20;;
61373;SDS011;47242;48.158;-1.586;2022-08-14T04:56:21;10.88;;;7.95;;
61373;SDS011;47242;48.158;-1.586;2022-08-14T05:01:21;9.82;;;6.55;;
61373;SDS011;47242;48.158;-1.586;2022-08-14T05:03:48;11.02;;;7.55;;
61373;SDS011;47242;48.158;-1.586;2022-08-14T05:06:14;12.77;;;7.88;;
61373;SDS011;47242;48.158;-1.586;2022-08-14T05:08:40;15.77;;;8.20;;
61373;SDS011;47242;48.158;-1.586;2022-08-14T05:11:07;11.98;;;8.05;;
61373;SDS011;47242;48.158;-1.586;2022-08-14T05:13:34;13.02;;;7.45;;
61373;SDS011;47242;48.158;-1.586;2022-08-14T05:16:04;10.48;;;7.47;;
61373;SDS011;47242;48.158;-1.586;2022-08-14T05:18:32;13.65;;;7.55;;
61373;SDS011;47242;48.158;-1.586;2022-08-14T05:21:01;11.27;;;6.68;;
61373;SDS011;47242;48.158;-1.586;2022-08-14T05:23:31;13.73;;;8.00;;
61373;SDS011;47242;48.158;-1.586;2022-08-14T05:25:59;15.45;;;7.75;;
61373;SDS011;47242;48.158;-1.586;2022-08-14T05:28:27;13.02;;;8.27;;
61373;SDS011;47242;48.158;-1.586;2022-08-14T05:30:56;12.50;;;8.27;;
61373;SDS011;47242;48.158;-1.586;2022-08-14T05:33:24;11.30;;;7.68;;
61373;SDS011;47242;48.158;-1.586;2022-08-14T05:35:52;13.93;;;8.32;;
61373;SDS011;47242;48.158;-1.586;2022-08-14T05:38:25;14.45;;;9.32;;
61373;SDS011;47242;48.158;-1.586;2022-08-14T05:40:53;13.73;;;9.05;;
61373;SDS011;47242;48.158;-1.586;2022-08-14T05:43:28;15.55;;;9.63;;
61373;SDS011;47242;48.158;-1.586;2022-08-14T05:45:55;13.65;;;10.02;;
61373;SDS011;47242;48.158;-1.586;2022-08-14T05:48:25;15.85;;;9.70;;
61373;SDS011;47242;48.158;-1.586;2022-08-14T05:50:51;12.65;;;9.93;;
61373;SDS011;47242;48.158;-1.586;2022-08-14T05:53:19;15.32;;;9.75;;
61373;SDS011;47242;48.158;-1.586;2022-08-14T05:55:49;16.15;;;10.38;;
61373;SDS011;47242;48.158;-1.586;2022-08-14T05:58:16;12.20;;;8.85;;
61373;SDS011;47242;48.158;-1.586;2022-08-14T06:00:43;13.30;;;10.10;;
61373;SDS011;47242;48.158;-1.586;2022-08-14T06:03:12;15.02;;;9.95;;
61373;SDS011;47242;48.158;-1.586;2022-08-14T06:05:40;15.30;;;11.07;;
61373;SDS011;47242;48.158;-1.586;2022-08-14T06:08:20;17.15;;;10.43;;
61373;SDS011;47242;48.158;-1.586;2022-08-14T06:10:48;16.58;;;11.98;;
61373;SDS011;47242;48.158;-1.586;2022-08-14T06:13:15;18.40;;;11.80;;
61373;SDS011;47242;48.158;-1.586;2022-08-14T06:15:42;19.60;;;12.25;;
61373;SDS011;47242;48.158;-1.586;2022-08-14T06:18:08;15.98;;;12.13;;
61373;SDS011;47242;48.158;-1.586;2022-08-14T06:20:35;20.88;;;13.35;;
61373;SDS011;47242;48.158;-1.586;2022-08-14T06:23:02;17.80;;;11.90;;
61373;SDS011;47242;48.158;-1.586;2022-08-14T06:25:28;17.48;;;13.40;;
61373;SDS011;47242;48.158;-1.586;2022-08-14T06:27:54;21.45;;;14.02;;
61373;SDS011;47242;48.158;-1.586;2022-08-14T06:30:21;20.58;;;14.30;;
61373;SDS011;47242;48.158;-1.586;2022-08-14T06:32:48;21.00;;;13.70;;
61373;SDS011;47242;48.158;-1.586;2022-08-14T06:35:14;20.67;;;14.13;;
61373;SDS011;47242;48.158;-1.586;2022-08-14T06:37:46;22.55;;;14.40;;
61373;SDS011;47242;48.158;-1.586;2022-08-14T06:40:19;21.98;;;15.57;;
61373;SDS011;47242;48.158;-1.586;2022-08-14T06:42:47;23.65;;;13.30;;
61373;SDS011;47242;48.158;-1.586;2022-08-14T06:45:14;19.63;;;12.82;;
61373;SDS011;47242;48.158;-1.586;2022-08-14T06:47:41;24.40;;;13.75;;
61373;SDS011;47242;48.158;-1.586;2022-08-14T06:50:09;17.42;;;12.77;;
61373;SDS011;47242;48.158;-1.586;2022-08-14T06:52:39;16.35;;;12.60;;
61373;SDS011;47242;48.158;-1.586;2022-08-14T06:55:07;23.38;;;13.65;;
61373;SDS011;47242;48.158;-1.586;2022-08-14T06:57:38;20.10;;;13.82;;
61373;SDS011;47242;48.158;-1.586;2022-08-14T07:00:06;19.50;;;13.18;;
61373;SDS011;47242;48.158;-1.586;2022-08-14T07:02:34;21.07;;;13.03;;
61373;SDS011;47242;48.158;-1.586;2022-08-14T07:05:19;16.88;;;12.38;;
61373;SDS011;47242;48.158;-1.586;2022-08-14T07:08:04;17.58;;;12.63;;
61373;SDS011;47242;48.158;-1.586;2022-08-14T07:10:30;18.73;;;13.20;;
61373;SDS011;47242;48.158;-1.586;2022-08-14T07:12:56;18.23;;;12.35;;
61373;SDS011;47242;48.158;-1.586;2022-08-14T07:15:22;20.88;;;13.05;;
61373;SDS011;47242;48.158;-1.586;2022-08-14T07:17:48;20.63;;;13.32;;
61373;SDS011;47242;48.158;-1.586;2022-08-14T07:20:15;19.50;;;12.32;;
61373;SDS011;47242;48.158;-1.586;2022-08-14T07:22:44;15.63;;;12.32;;
61373;SDS011;47242;48.158;-1.586;2022-08-14T07:25:14;21.48;;;14.13;;
61373;SDS011;47242;48.158;-1.586;2022-08-14T07:27:40;18.88;;;12.98;;
61373;SDS011;47242;48.158;-1.586;2022-08-14T07:30:07;22.65;;;13.88;;
61373;SDS011;47242;48.158;-1.586;2022-08-14T07:32:33;22.08;;;14.02;;
61373;SDS011;47242;48.158;-1.586;2022-08-14T07:34:59;19.88;;;13.57;;
61373;SDS011;47242;48.158;-1.586;2022-08-14T07:37:25;25.67;;;15.43;;
61373;SDS011;47242;48.158;-1.586;2022-08-14T07:39:50;19.40;;;13.45;;
61373;SDS011;47242;48.158;-1.586;2022-08-14T07:42:16;22.17;;;13.75;;
61373;SDS011;47242;48.158;-1.586;2022-08-14T07:44:42;18.77;;;13.68;;
61373;SDS011;47242;48.158;-1.586;2022-08-14T07:47:07;19.08;;;13.00;;
61373;SDS011;47242;48.158;-1.586;2022-08-14T07:49:33;20.10;;;12.63;;
61373;SDS011;47242;48.158;-1.586;2022-08-14T07:52:02;20.17;;;13.02;;
61373;SDS011;47242;48.158;-1.586;2022-08-14T07:54:28;17.40;;;12.70;;
61373;SDS011;47242;48.158;-1.586;2022-08-14T07:56:58;15.27;;;12.13;;
61373;SDS011;47242;48.158;-1.586;2022-08-14T07:59:25;17.38;;;13.10;;
61373;SDS011;47242;48.158;-1.586;2022-08-14T08:01:51;20.50;;;13.85;;
61373;SDS011;47242;48.158;-1.586;2022-08-14T08:04:25;23.25;;;14.65;;
61373;SDS011;47242;48.158;-1.586;2022-08-14T08:06:53;21.58;;;15.07;;
61373;SDS011;47242;48.158;-1.586;2022-08-14T08:09:23;22.13;;;14.13;;
61373;SDS011;47242;48.158;-1.586;2022-08-14T08:11:50;19.90;;;13.77;;
61373;SDS011;47242;48.158;-1.586;2022-08-14T08:14:18;19.90;;;14.48;;
61373;SDS011;47242;48.158;-1.586;2022-08-14T08:16:44;20.98;;;13.63;;
61373;SDS011;47242;48.158;-1.586;2022-08-14T08:19:11;17.77;;;13.48;;
61373;SDS011;47242;48.158;-1.586;2022-08-14T08:21:40;21.50;;;13.45;;
61373;SDS011;47242;48.158;-1.586;2022-08-14T08:24:05;20.70;;;14.63;;
61373;SDS011;47242;48.158;-1.586;2022-08-14T08:26:31;19.77;;;12.95;;
61373;SDS011;47242;48.158;-1.586;2022-08-14T08:28:57;21.30;;;13.32;;
61373;SDS011;47242;48.158;-1.586;2022-08-14T08:31:23;19.65;;;12.55;;
61373;SDS011;47242;48.158;-1.586;2022-08-14T08:33:50;23.77;;;13.82;;
61373;SDS011;47242;48.158;-1.586;2022-08-14T08:36:16;25.55;;;15.13;;
61373;SDS011;47242;48.158;-1.586;2022-08-14T08:38:43;19.75;;;14.23;;
61373;SDS011;47242;48.158;-1.586;2022-08-14T08:41:10;21.33;;;13.60;;
61373;SDS011;47242;48.158;-1.586;2022-08-14T08:43:36;21.42;;;13.68;;
61373;SDS011;47242;48.158;-1.586;2022-08-14T08:46:04;21.75;;;14.02;;
61373;SDS011;47242;48.158;-1.586;2022-08-14T08:48:43;24.17;;;14.75;;
61373;SDS011;47242;48.158;-1.586;2022-08-14T08:51:21;25.23;;;15.23;;
61373;SDS011;47242;48.158;-1.586;2022-08-14T08:53:54;22.15;;;15.20;;
61373;SDS011;47242;48.158;-1.586;2022-08-14T08:56:58;26.90;;;16.73;;
61373;SDS011;47242;48.158;-1.586;2022-08-14T08:59:18;21.92;;;14.07;;
61373;SDS011;47242;48.158;-1.586;2022-08-14T09:01:51;19.10;;;13.65;;
61373;SDS011;47242;48.158;-1.586;2022-08-14T09:04:20;25.30;;;14.73;;
61373;SDS011;47242;48.158;-1.586;2022-08-14T09:06:47;24.25;;;14.88;;
61373;SDS011;47242;48.158;-1.586;2022-08-14T09:09:32;26.90;;;15.65;;
61373;SDS011;47242;48.158;-1.586;2022-08-14T09:11:58;23.48;;;15.07;;
61373;SDS011;47242;48.158;-1.586;2022-08-14T09:14:26;25.20;;;14.98;;
61373;SDS011;47242;48.158;-1.586;2022-08-14T09:16:54;23.73;;;14.88;;
61373;SDS011;47242;48.158;-1.586;2022-08-14T09:19:20;24.67;;;16.67;;
61373;SDS011;47242;48.158;-1.586;2022-08-14T09:21:46;23.50;;;15.40;;
61373;SDS011;47242;48.158;-1.586;2022-08-14T09:24:13;23.17;;;15.10;;
61373;SDS011;47242;48.158;-1.586;2022-08-14T09:26:39;22.80;;;15.13;;
61373;SDS011;47242;48.158;-1.586;2022-08-14T09:29:06;24.02;;;15.93;;
61373;SDS011;47242;48.158;-1.586;2022-08-14T09:31:32;23.55;;;15.10;;
61373;SDS011;47242;48.158;-1.586;2022-08-14T09:39:02;23.48;;;15.52;;
61373;SDS011;47242;48.158;-1.586;2022-08-14T09:47:41;20.70;;;14.85;;
61373;SDS011;47242;48.158;-1.586;2022-08-14T09:50:26;21.02;;;15.23;;
61373;SDS011;47242;48.158;-1.586;2022-08-14T09:55:27;22.35;;;14.52;;
61373;SDS011;47242;48.158;-1.586;2022-08-14T10:03:29;23.92;;;14.80;;
61373;SDS011;47242;48.158;-1.586;2022-08-14T10:08:38;22.10;;;14.90;;
61373;SDS011;47242;48.158;-1.586;2022-08-14T10:11:29;24.35;;;14.68;;
61373;SDS011;47242;48.158;-1.586;2022-08-14T10:14:19;20.33;;;13.35;;
61373;SDS011;47242;48.158;-1.586;2022-08-14T10:16:49;22.48;;;15.02;;
61373;SDS011;47242;48.158;-1.586;2022-08-14T10:19:18;21.85;;;14.73;;
61373;SDS011;47242;48.158;-1.586;2022-08-14T10:24:35;21.92;;;15.50;;
61373;SDS011;47242;48.158;-1.586;2022-08-14T10:27:16;25.05;;;15.30;;
61373;SDS011;47242;48.158;-1.586;2022-08-14T10:29:48;24.35;;;14.85;;
61373;SDS011;47242;48.158;-1.586;2022-08-14T10:32:15;20.15;;;13.90;;
61373;SDS011;47242;48.158;-1.586;2022-08-14T10:34:41;23.85;;;15.07;;
61373;SDS011;47242;48.158;-1.586;2022-08-14T10:37:13;20.85;;;13.93;;
61373;SDS011;47242;48.158;-1.586;2022-08-14T10:39:43;22.52;;;13.57;;
61373;SDS011;47242;48.158;-1.586;2022-08-14T10:42:21;19.05;;;12.95;;
61373;SDS011;47242;48.158;-1.586;2022-08-14T10:44:47;19.42;;;13.70;;
61373;SDS011;47242;48.158;-1.586;2022-08-14T10:47:15;19.02;;;13.00;;
61373;SDS011;47242;48.158;-1.586;2022-08-14T10:49:43;28.50;;;18.25;;
61373;SDS011;47242;48.158;-1.586;2022-08-14T10:52:25;22.35;;;13.23;;
61373;SDS011;47242;48.158;-1.586;2022-08-14T10:55:08;19.40;;;13.38;;
61373;SDS011;47242;48.158;-1.586;2022-08-14T10:57:51;20.08;;;13.38;;
61373;SDS011;47242;48.158;-1.586;2022-08-14T11:00:19;18.23;;;12.35;;
61373;SDS011;47242;48.158;-1.586;2022-08-14T11:05:42;16.90;;;12.70;;
61373;SDS011;47242;48.158;-1.586;2022-08-14T11:08:10;17.92;;;11.93;;
61373;SDS011;47242;48.158;-1.586;2022-08-14T11:10:46;18.88;;;13.68;;
61373;SDS011;47242;48.158;-1.586;2022-08-14T11:13:24;19.48;;;12.43;;
61373;SDS011;47242;48.158;-1.586;2022-08-14T11:15:51;18.38;;;12.00;;
61373;SDS011;47242;48.158;-1.586;2022-08-14T11:18:20;19.00;;;12.95;;
61373;SDS011;47242;48.158;-1.586;2022-08-14T11:20:54;18.40;;;12.38;;
61373;SDS011;47242;48.158;-1.586;2022-08-14T11:23:30;18.70;;;12.75;;
61373;SDS011;47242;48.158;-1.586;2022-08-14T11:25:58;17.98;;;11.98;;
61373;SDS011;47242;48.158;-1.586;2022-08-14T11:28:25;22.15;;;12.25;;
61373;SDS011;47242;48.158;-1.586;2022-08-14T11:30:53;17.80;;;12.35;;
61373;SDS011;47242;48.158;-1.586;2022-08-14T11:33:22;17.95;;;12.57;;
61373;SDS011;47242;48.158;-1.586;2022-08-14T11:35:59;16.55;;;12.30;;
61373;SDS011;47242;48.158;-1.586;2022-08-14T11:38:26;19.70;;;12.65;;
61373;SDS011;47242;48.158;-1.586;2022-08-14T11:40:59;20.15;;;12.63;;
61373;SDS011;47242;48.158;-1.586;2022-08-14T11:43:26;20.13;;;13.13;;
61373;SDS011;47242;48.158;-1.586;2022-08-14T11:45:51;23.70;;;12.93;;
61373;SDS011;47242;48.158;-1.586;2022-08-14T11:48:18;17.83;;;12.63;;
61373;SDS011;47242;48.158;-1.586;2022-08-14T11:50:46;21.25;;;12.68;;
61373;SDS011;47242;48.158;-1.586;2022-08-14T11:53:23;22.45;;;13.10;;
61373;SDS011;47242;48.158;-1.586;2022-08-14T11:55:58;16.10;;;11.00;;
61373;SDS011;47242;48.158;-1.586;2022-08-14T11:58:27;18.38;;;11.82;;
61373;SDS011;47242;48.158;-1.586;2022-08-14T12:03:53;18.92;;;11.60;;
61373;SDS011;47242;48.158;-1.586;2022-08-14T12:08:49;23.35;;;12.13;;
61373;SDS011;47242;48.158;-1.586;2022-08-14T12:11:17;16.63;;;10.65;;
61373;SDS011;47242;48.158;-1.586;2022-08-14T12:13:43;16.40;;;11.55;;
61373;SDS011;47242;48.158;-1.586;2022-08-14T12:16:10;15.43;;;10.75;;
61373;SDS011;47242;48.158;-1.586;2022-08-14T12:18:41;16.02;;;10.98;;
61373;SDS011;47242;48.158;-1.586;2022-08-14T12:21:13;18.23;;;11.65;;
61373;SDS011;47242;48.158;-1.586;2022-08-14T12:23:43;15.07;;;11.13;;
61373;SDS011;47242;48.158;-1.586;2022-08-14T12:26:14;17.35;;;10.48;;
61373;SDS011;47242;48.158;-1.586;2022-08-14T12:28:42;19.58;;;11.98;;
61373;SDS011;47242;48.158;-1.586;2022-08-14T12:31:16;17.10;;;11.35;;
61373;SDS011;47242;48.158;-1.586;2022-08-14T12:34:05;17.52;;;11.18;;
61373;SDS011;47242;48.158;-1.586;2022-08-14T12:36:32;17.60;;;9.93;;
61373;SDS011;47242;48.158;-1.586;2022-08-14T12:39:19;17.15;;;11.45;;
61373;SDS011;47242;48.158;-1.586;2022-08-14T12:41:51;20.30;;;11.47;;
61373;SDS011;47242;48.158;-1.586;2022-08-14T12:44:34;17.60;;;11.43;;
61373;SDS011;47242;48.158;-1.586;2022-08-14T12:49:46;16.90;;;12.00;;
61373;SDS011;47242;48.158;-1.586;2022-08-14T12:52:26;21.67;;;13.13;;
61373;SDS011;47242;48.158;-1.586;2022-08-14T12:55:00;18.67;;;12.32;;
61373;SDS011;47242;48.158;-1.586;2022-08-14T13:00:12;18.58;;;10.93;;
61373;SDS011;47242;48.158;-1.586;2022-08-14T13:02:44;17.85;;;11.75;;
61373;SDS011;47242;48.158;-1.586;2022-08-14T13:05:11;16.50;;;11.00;;
61373;SDS011;47242;48.158;-1.586;2022-08-14T13:07:38;17.95;;;11.43;;
61373;SDS011;47242;48.158;-1.586;2022-08-14T13:10:06;17.63;;;11.80;;
61373;SDS011;47242;48.158;-1.586;2022-08-14T13:12:38;16.00;;;11.35;;
61373;SDS011;47242;48.158;-1.586;2022-08-14T13:15:06;19.42;;;12.63;;
61373;SDS011;47242;48.158;-1.586;2022-08-14T13:17:44;20.52;;;12.07;;
61373;SDS011;47242;48.158;-1.586;2022-08-14T13:20:12;19.92;;;13.18;;
61373;SDS011;47242;48.158;-1.586;2022-08-14T13:22:40;25.98;;;13.25;;
61373;SDS011;47242;48.158;-1.586;2022-08-14T13:25:09;21.00;;;13.27;;
61373;SDS011;47242;48.158;-1.586;2022-08-14T13:27:37;16.60;;;11.23;;
61373;SDS011;47242;48.158;-1.586;2022-08-14T13:30:07;15.88;;;11.23;;
61373;SDS011;47242;48.158;-1.586;2022-08-14T13:32:35;22.00;;;11.63;;
61373;SDS011;47242;48.158;-1.586;2022-08-14T13:35:04;19.33;;;10.40;;
61373;SDS011;47242;48.158;-1.586;2022-08-14T13:37:31;18.08;;;10.75;;
61373;SDS011;47242;48.158;-1.586;2022-08-14T13:39:57;17.98;;;9.30;;
61373;SDS011;47242;48.158;-1.586;2022-08-14T13:42:24;16.13;;;9.93;;
61373;SDS011;47242;48.158;-1.586;2022-08-14T13:44:54;16.95;;;10.13;;
61373;SDS011;47242;48.158;-1.586;2022-08-14T13:47:22;20.98;;;9.60;;
61373;SDS011;47242;48.158;-1.586;2022-08-14T13:49:56;13.45;;;8.20;;
61373;SDS011;47242;48.158;-1.586;2022-08-14T13:52:24;14.75;;;6.95;;
61373;SDS011;47242;48.158;-1.586;2022-08-14T13:54:52;13.70;;;7.43;;
61373;SDS011;47242;48.158;-1.586;2022-08-14T13:57:18;12.88;;;8.07;;
61373;SDS011;47242;48.158;-1.586;2022-08-14T13:59:48;15.40;;;7.72;;
61373;SDS011;47242;48.158;-1.586;2022-08-14T14:04:46;12.38;;;6.78;;
61373;SDS011;47242;48.158;-1.586;2022-08-14T14:07:17;15.45;;;7.25;;
61373;SDS011;47242;48.158;-1.586;2022-08-14T14:09:46;9.50;;;5.93;;
61373;SDS011;47242;48.158;-1.586;2022-08-14T14:12:13;10.77;;;6.25;;
61373;SDS011;47242;48.158;-1.586;2022-08-14T14:14:40;9.15;;;5.63;;
61373;SDS011;47242;48.158;-1.586;2022-08-14T14:17:08;9.63;;;6.38;;
61373;SDS011;47242;48.158;-1.586;2022-08-14T14:19:41;12.25;;;6.82;;
61373;SDS011;47242;48.158;-1.586;2022-08-14T14:22:11;10.35;;;6.25;;
61373;SDS011;47242;48.158;-1.586;2022-08-14T14:24:40;12.50;;;6.65;;
61373;SDS011;47242;48.158;-1.586;2022-08-14T14:27:06;8.70;;;5.80;;
61373;SDS011;47242;48.158;-1.586;2022-08-14T14:29:32;13.20;;;5.93;;
61373;SDS011;47242;48.158;-1.586;2022-08-14T14:32:00;8.82;;;5.22;;
61373;SDS011;47242;48.158;-1.586;2022-08-14T14:34:28;9.23;;;5.18;;
61373;SDS011;47242;48.158;-1.586;2022-08-14T14:36:57;9.18;;;5.63;;
61373;SDS011;47242;48.158;-1.586;2022-08-14T14:39:29;7.78;;;4.38;;
61373;SDS011;47242;48.158;-1.586;2022-08-14T14:41:57;8.05;;;4.63;;
61373;SDS011;47242;48.158;-1.586;2022-08-14T14:44:27;7.65;;;5.47;;
61373;SDS011;47242;48.158;-1.586;2022-08-14T14:46:58;7.68;;;5.20;;
61373;SDS011;47242;48.158;-1.586;2022-08-14T14:49:25;5.47;;;3.65;;
61373;SDS011;47242;48.158;-1.586;2022-08-14T14:51:53;5.82;;;3.67;;
61373;SDS011;47242;48.158;-1.586;2022-08-14T14:54:21;7.80;;;3.70;;
61373;SDS011;47242;48.158;-1.586;2022-08-14T14:56:47;7.53;;;3.47;;
61373;SDS011;47242;48.158;-1.586;2022-08-14T14:59:14;5.30;;;3.10;;
61373;SDS011;47242;48.158;-1.586;2022-08-14T15:01:40;5.07;;;3.08;;
61373;SDS011;47242;48.158;-1.586;2022-08-14T15:04:11;5.50;;;3.00;;
61373;SDS011;47242;48.158;-1.586;2022-08-14T15:06:37;5.13;;;2.90;;
61373;SDS011;47242;48.158;-1.586;2022-08-14T15:09:03;5.97;;;3.17;;
61373;SDS011;47242;48.158;-1.586;2022-08-14T15:11:29;4.50;;;3.05;;
61373;SDS011;47242;48.158;-1.586;2022-08-14T15:13:56;4.30;;;2.90;;